Estación de La Piedad

Ultimos registro cada 15 minutos 71
Estación Fecha / Hora Temperatura Humedad Lluvia Velocidad Dirección Radiación Presion
71 La Piedad 09-05-2026 17:30 16,3 65 0 0,4 221 12 1017,4
70 La Piedad 09-05-2026 17:15 17,3 63 0 1,3 221 23 1017,4
69 La Piedad 09-05-2026 17:00 17,9 61 0 2,2 218 88 1017,7
68 La Piedad 09-05-2026 16:45 18,3 61 0 1,3 217 139 1017,5
67 La Piedad 09-05-2026 16:30 18,6 59 0 2,2 188 139 1017,5
66 La Piedad 09-05-2026 16:15 18,9 58 0 1,8 204 236 1017,4
65 La Piedad 09-05-2026 16:00 18,8 59 0 2,2 214 279 1017,2
64 La Piedad 09-05-2026 15:45 18,7 60 0 3,1 229 299 1017,5
63 La Piedad 09-05-2026 15:30 18,5 59 0 1,8 212 357 1017,8
62 La Piedad 09-05-2026 15:15 18,5 58 0 1,8 219 153 1017,7
61 La Piedad 09-05-2026 15:00 18,3 58 0 3,6 186 429 1018,1
60 La Piedad 09-05-2026 14:45 18 60 0 4 198 454 1018,1
59 La Piedad 09-05-2026 14:30 17,7 60 0 3,1 214 487 1017,9
58 La Piedad 09-05-2026 14:15 17,6 61 0 3,6 197 452 1018,2
57 La Piedad 09-05-2026 14:00 17,2 62 0 2,2 216 533 1018,4
56 La Piedad 09-05-2026 13:45 17 62 0 5,4 247 32 1018,3
55 La Piedad 09-05-2026 13:30 16,8 62 0 4,5 185 32 1018,7
54 La Piedad 09-05-2026 13:15 16,3 65 0 2,7 220 578 1018,9
53 La Piedad 09-05-2026 13:00 15,9 65 0 3,1 207 584 1019
52 La Piedad 09-05-2026 12:45 15,5 67 0 2,2 225 587 1019,3
51 La Piedad 09-05-2026 12:30 15,3 69 0 2,2 220 585 1019,2
50 La Piedad 09-05-2026 12:15 15,1 69 0 1,8 199 580 1019,6
49 La Piedad 09-05-2026 12:00 14,7 69 0 1,8 185 547 1019,5
48 La Piedad 09-05-2026 11:45 14,2 72 0 3,6 204 32 1019,9
47 La Piedad 09-05-2026 11:30 13,8 71 0 2,7 215 30 1019,9
46 La Piedad 09-05-2026 11:15 13 74 0 2,7 220 30 1019,8
45 La Piedad 09-05-2026 11:00 12,3 80 0 1,8 216 239 1019,9
44 La Piedad 09-05-2026 10:45 11,3 80 0 2,7 238 475 1019,9
43 La Piedad 09-05-2026 10:30 10,7 81 0 2,7 235 445 1020,2
42 La Piedad 09-05-2026 10:15 9,9 84 0 1,3 223 392 1020,3
41 La Piedad 09-05-2026 10:00 9 87 0 0,9 223 181 1019,9
40 La Piedad 09-05-2026 09:45 8,1 91 0 2,7 225 336 1020
39 La Piedad 09-05-2026 09:30 6,9 95 0 2,2 214 244 1019,9
38 La Piedad 09-05-2026 09:15 5,8 98 0 1,3 211 207 1020,1
37 La Piedad 09-05-2026 09:00 4,3 98 0 0 198 120 1020,2
36 La Piedad 09-05-2026 08:45 3,3 97 0 0 198 76 1020,5
35 La Piedad 09-05-2026 08:30 2,4 97 0 0 198 58 1020,3
34 La Piedad 09-05-2026 08:15 0,7 96 0 0 198 58 1020,5
33 La Piedad 09-05-2026 08:00 0,1 95 0 0 198 16 1020,5
32 La Piedad 09-05-2026 07:45 0,7 95 0 0 198 9 1020,4
31 La Piedad 09-05-2026 07:30 1,2 96 0 0 198 0 1020,5
30 La Piedad 09-05-2026 07:15 1,3 96 0 0 198 0 1020,4
29 La Piedad 09-05-2026 07:00 0,4 94 0 0 198 0 1020,4
28 La Piedad 09-05-2026 06:45 1,8 96 0 0 198 0 1020,4
27 La Piedad 09-05-2026 06:30 1,9 96 0 0 198 0 1020,5
26 La Piedad 09-05-2026 06:15 2 96 0 0 198 0 1020,6
25 La Piedad 09-05-2026 06:00 1,7 96 0 0,9 200 0 1020,9
24 La Piedad 09-05-2026 05:45 1,7 97 0 0,9 200 0 1020,7
23 La Piedad 09-05-2026 05:30 0,6 96 0 0 200 0 1020,8
22 La Piedad 09-05-2026 05:15 0,4 94 0 0 200 0 1020,8
21 La Piedad 09-05-2026 05:00 1,3 95 0 0 200 0 1020,7
20 La Piedad 09-05-2026 04:45 1,7 96 0 0 200 0 1020,8
19 La Piedad 09-05-2026 04:30 1,9 96 0 0 200 0 1020,7
18 La Piedad 09-05-2026 04:15 1,9 95 0 0 200 0 1020,8
17 La Piedad 09-05-2026 04:00 2,5 95 0 0 200 0 1020,9
16 La Piedad 09-05-2026 03:45 3,4 96 0 0 200 0 1020,8
15 La Piedad 09-05-2026 03:30 3,8 96 0 0 200 0 1020,9
14 La Piedad 09-05-2026 03:15 4,1 96 0 0 200 0 1020,8
13 La Piedad 09-05-2026 03:00 4,2 96 0 0 200 0 1021
12 La Piedad 09-05-2026 02:45 5 95 0 0 200 0 1021,1
11 La Piedad 09-05-2026 02:30 5,1 96 0 0,4 200 0 1021,3
10 La Piedad 09-05-2026 02:15 5,3 96 0 0,9 200 0 1021,3
9 La Piedad 09-05-2026 02:00 5,8 96 0 0 200 0 1021,4
8 La Piedad 09-05-2026 01:45 5,4 96 0 0 200 0 1021,7
7 La Piedad 09-05-2026 01:30 5,8 95 0 0 200 0 1021,8
6 La Piedad 09-05-2026 01:15 6,3 95 0 0 200 0 1021,7
5 La Piedad 09-05-2026 01:00 6,4 95 0 0 200 0 1021,8
4 La Piedad 09-05-2026 00:45 7 95 0 0,9 200 0 1021,8
3 La Piedad 09-05-2026 00:30 7,7 95 0 0,9 200 0 1021,8
2 La Piedad 09-05-2026 00:15 8,3 95 0 2,2 200 0 1021,6
1 La Piedad 09-05-2026 00:00 8,8 95 0 3,1 185 0 1021,7